createdAt,value
2017-09-28T00:00:49.825Z,33.30
2017-09-28T00:03:17.450Z,28.53
2017-09-28T00:05:45.041Z,25.83
2017-09-28T00:08:12.601Z,27.90
2017-09-28T00:10:40.217Z,31.10
2017-09-28T00:13:08.559Z,30.77
2017-09-28T00:15:36.154Z,27.40
2017-09-28T00:18:03.731Z,27.80
2017-09-28T00:20:32.107Z,30.63
2017-09-28T00:23:00.433Z,30.33
2017-09-28T00:25:28.011Z,27.03
2017-09-28T00:27:55.593Z,29.50
2017-09-28T00:30:23.153Z,32.27
2017-09-28T00:32:50.798Z,28.67
2017-09-28T00:35:18.382Z,37.13
2017-09-28T00:37:45.990Z,28.17
2017-09-28T00:40:14.348Z,33.33
2017-09-28T00:42:42.688Z,25.80
2017-09-28T00:45:10.299Z,31.13
2017-09-28T00:47:38.625Z,27.60
2017-09-28T00:50:06.217Z,34.60
2017-09-28T00:52:33.819Z,31.73
2017-09-28T00:55:02.177Z,24.27
2017-09-28T00:57:29.801Z,26.63
2017-09-28T00:59:57.361Z,29.93
2017-09-28T01:02:24.968Z,28.03
2017-09-28T01:04:52.561Z,30.00
2017-09-28T01:07:20.913Z,28.83
2017-09-28T01:09:50.027Z,25.43
2017-09-28T01:12:18.370Z,28.03
2017-09-28T01:14:45.989Z,34.70
2017-09-28T01:17:14.359Z,25.47
2017-09-28T01:19:42.693Z,31.00
2017-09-28T01:22:10.287Z,32.30
2017-09-28T01:24:37.860Z,28.73
2017-09-28T01:27:05.493Z,25.90
2017-09-28T01:29:33.085Z,26.53
2017-09-28T01:32:00.660Z,31.90
2017-09-28T01:34:29.009Z,32.67
2017-09-28T01:36:56.582Z,30.00
2017-09-28T01:39:24.195Z,31.83
2017-09-28T01:41:51.783Z,31.30
2017-09-28T01:44:19.369Z,29.33
2017-09-28T01:46:47.087Z,28.20
2017-09-28T01:49:14.652Z,30.63
2017-09-28T01:51:43.037Z,29.07
2017-09-28T01:54:10.630Z,34.03
2017-09-28T01:56:38.212Z,28.20
2017-09-28T01:59:05.839Z,33.40
2017-09-28T02:01:33.423Z,27.57
2017-09-28T02:04:01.081Z,24.23
2017-09-28T02:06:28.673Z,27.97
2017-09-28T02:08:56.298Z,33.57
2017-09-28T02:11:23.873Z,32.93
2017-09-28T02:13:51.465Z,32.90
2017-09-28T02:16:19.085Z,28.70
2017-09-28T02:18:46.649Z,28.93
2017-09-28T02:21:14.258Z,30.40
2017-09-28T02:23:41.844Z,29.40
2017-09-28T02:26:10.248Z,29.90
2017-09-28T02:28:38.606Z,34.17
2017-09-28T02:31:06.178Z,30.23
2017-09-28T02:33:34.529Z,25.33
2017-09-28T02:36:02.121Z,36.93
2017-09-28T02:38:29.736Z,28.10
2017-09-28T02:40:57.311Z,28.77
2017-09-28T02:43:24.897Z,32.77
2017-09-28T02:45:52.475Z,29.20
2017-09-28T02:48:21.587Z,29.40
2017-09-28T02:50:49.933Z,37.40
2017-09-28T02:53:17.493Z,27.17
2017-09-28T02:55:45.090Z,30.30
2017-09-28T02:58:12.668Z,33.90
2017-09-28T03:00:41.035Z,25.87
2017-09-28T03:03:09.379Z,35.90
2017-09-28T03:05:36.937Z,33.80
2017-09-28T03:08:04.524Z,30.47
2017-09-28T03:10:32.113Z,28.40
2017-09-28T03:13:00.490Z,31.77
2017-09-28T03:15:28.068Z,40.63
2017-09-28T03:17:56.407Z,27.30
2017-09-28T03:20:24.024Z,43.20
2017-09-28T03:22:51.611Z,29.60
2017-09-28T03:25:19.238Z,29.97
2017-09-28T03:27:47.575Z,31.83
2017-09-28T03:30:15.156Z,33.93
2017-09-28T03:32:42.772Z,31.30
2017-09-28T03:35:10.324Z,38.40
2017-09-28T03:37:38.751Z,33.27
2017-09-28T03:40:06.312Z,26.47
2017-09-28T03:42:33.901Z,30.43
2017-09-28T03:45:01.497Z,28.70
2017-09-28T03:47:29.835Z,34.97
2017-09-28T03:49:57.451Z,27.40
2017-09-28T03:52:25.047Z,37.37
2017-09-28T03:54:52.630Z,34.30
2017-09-28T03:57:20.209Z,32.30
2017-09-28T03:59:48.555Z,32.97
2017-09-28T04:02:16.155Z,30.80
2017-09-28T04:04:45.224Z,29.83
2017-09-28T04:07:12.819Z,28.60
2017-09-28T04:09:40.380Z,37.30
2017-09-28T04:12:07.996Z,31.47
2017-09-28T04:14:35.572Z,31.00
2017-09-28T04:17:03.234Z,28.40
2017-09-28T04:19:30.853Z,31.53
2017-09-28T04:21:59.180Z,31.40
2017-09-28T04:24:26.778Z,34.30
2017-09-28T04:26:54.350Z,31.10
2017-09-28T04:29:21.939Z,33.40
2017-09-28T04:31:50.318Z,38.33
2017-09-28T04:34:18.644Z,37.20
2017-09-28T04:36:46.305Z,28.80
2017-09-28T04:39:13.882Z,29.60
2017-09-28T04:41:41.493Z,35.27
2017-09-28T04:44:09.839Z,38.80
2017-09-28T04:46:37.446Z,32.53
2017-09-28T04:49:05.779Z,36.80
2017-09-28T04:51:33.369Z,32.73
2017-09-28T04:54:01.001Z,35.67
2017-09-28T04:56:28.625Z,40.20
2017-09-28T04:58:56.971Z,31.57
2017-09-28T05:01:24.547Z,37.13
2017-09-28T05:03:52.165Z,41.63
2017-09-28T05:06:19.742Z,35.13
2017-09-28T05:08:47.347Z,32.97
2017-09-28T05:11:14.904Z,38.87
2017-09-28T05:13:42.473Z,36.60
2017-09-28T05:16:10.057Z,33.10
2017-09-28T05:18:38.399Z,34.50
2017-09-28T05:21:06.776Z,37.83
2017-09-28T05:23:34.337Z,34.07
2017-09-28T05:26:01.930Z,33.17
2017-09-28T05:28:30.299Z,26.47
2017-09-28T05:30:57.880Z,38.07
2017-09-28T05:33:26.275Z,34.87
2017-09-28T05:35:54.677Z,34.77
2017-09-28T05:38:22.254Z,36.67
2017-09-28T05:40:49.841Z,36.90
2017-09-28T05:43:17.419Z,30.30
2017-09-28T05:45:45.013Z,36.37
2017-09-28T05:48:13.359Z,36.60
2017-09-28T05:50:40.925Z,34.00
2017-09-28T05:53:08.504Z,33.87
2017-09-28T05:55:37.597Z,37.37
2017-09-28T05:58:05.211Z,30.03
2017-09-28T06:00:32.787Z,37.27
2017-09-28T06:03:00.376Z,36.60
2017-09-28T06:05:27.988Z,32.07
2017-09-28T06:07:55.548Z,43.30
2017-09-28T06:10:23.919Z,31.47
2017-09-28T06:12:52.263Z,32.00
2017-09-28T06:15:19.840Z,38.33
2017-09-28T06:17:48.946Z,43.27
2017-09-28T06:20:16.504Z,39.43
2017-09-28T06:22:44.113Z,34.60
2017-09-28T06:25:11.673Z,34.97
2017-09-28T06:27:39.295Z,40.37
2017-09-28T06:30:06.885Z,34.20
2017-09-28T06:32:35.242Z,37.63
2017-09-28T06:35:02.829Z,30.80
2017-09-28T06:37:31.171Z,35.13
2017-09-28T06:39:58.752Z,41.07
2017-09-28T06:42:27.095Z,39.20
2017-09-28T06:44:54.713Z,42.73
2017-09-28T06:47:22.288Z,32.70
2017-09-28T06:49:50.647Z,37.13
2017-09-28T06:52:18.273Z,36.67
2017-09-28T06:54:45.838Z,35.17
2017-09-28T06:57:13.401Z,37.53
2017-09-28T06:59:41.011Z,34.80
2017-09-28T07:02:08.587Z,37.53
2017-09-28T07:04:36.927Z,41.00
2017-09-28T07:07:04.529Z,35.30
2017-09-28T07:09:32.142Z,40.93
2017-09-28T07:11:59.716Z,35.93
2017-09-28T07:14:27.334Z,39.83
2017-09-28T07:16:55.664Z,36.77
2017-09-28T07:19:23.235Z,38.90
2017-09-28T07:21:50.824Z,39.60
2017-09-28T07:24:19.888Z,37.50
2017-09-28T07:26:47.468Z,34.50
2017-09-28T07:29:15.105Z,32.77
2017-09-28T07:31:42.701Z,36.33
2017-09-28T07:34:10.260Z,39.53
2017-09-28T07:36:37.879Z,38.83
2017-09-28T07:39:05.437Z,40.53
2017-09-28T07:41:33.014Z,41.83
2017-09-28T07:44:00.656Z,43.83
2017-09-28T07:46:29.016Z,35.80
2017-09-28T07:48:56.628Z,42.50
2017-09-28T07:51:24.211Z,37.07
2017-09-28T07:53:51.825Z,35.30
2017-09-28T07:56:20.167Z,37.63
2017-09-28T07:58:47.773Z,36.87
2017-09-28T08:01:16.115Z,37.40
2017-09-28T08:03:43.713Z,37.53
2017-09-28T08:06:12.063Z,35.97
2017-09-28T08:08:39.646Z,38.43
2017-09-28T08:11:08.002Z,37.40
2017-09-28T08:13:35.596Z,38.20
2017-09-28T08:16:03.175Z,45.13
2017-09-28T08:18:31.519Z,39.63
2017-09-28T08:20:59.113Z,39.13
2017-09-28T08:23:26.711Z,42.83
2017-09-28T08:25:54.301Z,39.07
2017-09-28T08:28:21.902Z,34.53
2017-09-28T08:30:49.490Z,36.00
2017-09-28T08:33:17.873Z,37.40
2017-09-28T08:35:46.225Z,36.90
2017-09-28T08:38:13.844Z,38.47
2017-09-28T08:40:41.458Z,36.00
2017-09-28T08:43:09.049Z,42.70
2017-09-28T08:45:37.436Z,42.27
2017-09-28T08:48:05.026Z,50.93
2017-09-28T08:50:33.407Z,38.97
2017-09-28T08:53:01.037Z,35.23
2017-09-28T08:55:29.421Z,37.30
2017-09-28T08:57:57.763Z,41.27
2017-09-28T09:00:26.273Z,41.07
2017-09-28T09:02:53.844Z,36.03
2017-09-28T09:05:22.266Z,42.90
2017-09-28T09:07:49.884Z,41.83
2017-09-28T09:10:20.423Z,41.47
2017-09-28T09:12:57.193Z,53.23
2017-09-28T09:15:25.176Z,40.47
2017-09-28T09:17:53.528Z,39.00
2017-09-28T09:20:21.125Z,38.70
2017-09-28T09:22:49.486Z,39.07
2017-09-28T09:25:17.044Z,41.80
2017-09-28T09:27:44.654Z,41.60
2017-09-28T09:30:12.483Z,42.20
2017-09-28T09:32:40.066Z,43.90
2017-09-28T09:35:08.485Z,42.33
2017-09-28T09:37:36.067Z,36.90
2017-09-28T09:40:03.643Z,42.80
2017-09-28T09:42:31.278Z,44.90
2017-09-28T09:44:58.855Z,37.23
2017-09-28T09:47:26.447Z,41.67
2017-09-28T09:49:54.035Z,38.10
2017-09-28T09:52:22.371Z,44.87
2017-09-28T09:54:49.961Z,39.70
2017-09-28T09:57:17.539Z,38.03
2017-09-28T09:59:45.865Z,39.37
2017-09-28T10:02:13.448Z,42.20
2017-09-28T10:04:41.023Z,41.40
2017-09-28T10:07:14.496Z,40.93
2017-09-28T10:09:46.594Z,44.37
2017-09-28T10:12:19.108Z,46.67
2017-09-28T10:14:50.311Z,42.60
2017-09-28T10:17:17.892Z,40.87
2017-09-28T10:19:45.490Z,42.87
2017-09-28T10:22:13.103Z,36.87
2017-09-28T10:24:40.673Z,39.23
2017-09-28T10:27:08.301Z,41.90
2017-09-28T10:29:35.896Z,35.83
2017-09-28T10:32:03.458Z,41.20
2017-09-28T10:34:31.049Z,40.90
2017-09-28T10:36:59.410Z,40.93
2017-09-28T10:39:27.009Z,35.87
2017-09-28T10:41:55.373Z,35.97
2017-09-28T10:44:23.728Z,35.47
2017-09-28T10:46:51.332Z,32.97
2017-09-28T10:49:19.719Z,39.30
2017-09-28T10:51:48.083Z,41.67
2017-09-28T10:54:16.487Z,39.03
2017-09-28T10:56:44.890Z,35.40
2017-09-28T10:59:12.475Z,43.37
2017-09-28T11:01:40.078Z,36.10
2017-09-28T11:04:07.677Z,34.70
2017-09-28T11:06:35.257Z,33.60
2017-09-28T11:09:02.851Z,34.53
2017-09-28T11:11:30.417Z,32.43
2017-09-28T11:13:58.029Z,30.33
2017-09-28T11:16:25.589Z,27.03
2017-09-28T11:18:53.148Z,34.60
2017-09-28T11:21:21.519Z,29.00
2017-09-28T11:23:49.931Z,33.20
2017-09-28T11:26:17.558Z,35.70
2017-09-28T11:28:45.186Z,33.37
2017-09-28T11:31:13.538Z,31.90
2017-09-28T11:33:41.101Z,37.93
2017-09-28T11:36:08.719Z,36.43
2017-09-28T11:38:37.795Z,40.67
2017-09-28T11:41:05.381Z,41.53
2017-09-28T11:43:32.987Z,34.70
2017-09-28T11:46:00.559Z,37.93
2017-09-28T11:48:28.137Z,38.63
2017-09-28T11:50:55.802Z,39.83
2017-09-28T11:53:23.382Z,36.50
2017-09-28T11:55:50.989Z,36.67
2017-09-28T11:58:19.313Z,40.83
2017-09-28T12:00:46.924Z,40.40
2017-09-28T12:03:14.549Z,38.37
2017-09-28T12:05:42.139Z,40.63
2017-09-28T12:08:09.729Z,41.17
2017-09-28T12:10:38.072Z,39.97
2017-09-28T12:13:05.651Z,42.37
2017-09-28T12:15:33.233Z,36.80
2017-09-28T12:18:00.807Z,37.97
2017-09-28T12:20:29.213Z,36.97
2017-09-28T12:22:56.809Z,37.33
2017-09-28T12:25:24.369Z,38.73
2017-09-28T12:27:51.984Z,41.13
2017-09-28T12:33:10.020Z,24.83
2017-09-28T12:35:37.623Z,36.60
2017-09-28T12:38:05.360Z,38.63
2017-09-28T12:40:33.746Z,33.70
2017-09-28T12:43:02.091Z,27.53
2017-09-28T12:45:29.670Z,23.43
2017-09-28T12:47:57.287Z,27.07
2017-09-28T12:50:24.879Z,22.40
2017-09-28T12:52:52.500Z,24.50
2017-09-28T12:55:20.194Z,26.97
2017-09-28T12:57:47.754Z,29.23
2017-09-28T13:00:15.363Z,24.73
2017-09-28T13:02:43.725Z,25.60
2017-09-28T13:05:11.299Z,28.53
2017-09-28T13:07:38.908Z,24.83
2017-09-28T13:10:06.518Z,29.80
2017-09-28T13:12:34.105Z,27.40
2017-09-28T13:15:01.713Z,32.10
2017-09-28T13:17:29.287Z,36.67
2017-09-28T13:19:56.886Z,24.90
2017-09-28T13:22:24.472Z,23.33
2017-09-28T13:24:52.829Z,26.93
2017-09-28T13:27:20.433Z,25.90
2017-09-28T13:29:48.005Z,31.20
2017-09-28T13:32:15.587Z,35.40
2017-09-28T13:34:43.199Z,34.07
2017-09-28T13:37:10.790Z,33.50
2017-09-28T13:39:39.121Z,28.67
2017-09-28T13:42:06.768Z,33.13
2017-09-28T13:44:34.343Z,40.33
2017-09-28T13:47:01.908Z,30.47
2017-09-28T13:49:29.497Z,38.20
2017-09-28T13:51:57.071Z,31.87
2017-09-28T13:54:25.437Z,38.27
2017-09-28T13:56:53.029Z,34.23
2017-09-28T13:59:21.376Z,38.00
2017-09-28T14:01:48.951Z,37.40
2017-09-28T14:04:16.563Z,29.70
2017-09-28T14:06:44.139Z,38.73
2017-09-28T14:09:11.735Z,34.17
2017-09-28T14:11:39.312Z,32.50
2017-09-28T14:14:06.904Z,33.07
2017-09-28T14:16:35.232Z,32.97
2017-09-28T14:19:02.808Z,33.50
2017-09-28T14:21:30.404Z,31.50
2017-09-28T14:23:58.725Z,32.27
2017-09-28T14:26:26.289Z,34.90
2017-09-28T14:28:53.909Z,29.43
2017-09-28T14:31:22.258Z,37.33
2017-09-28T14:33:49.850Z,36.30
2017-09-28T14:36:17.463Z,33.77
2017-09-28T14:38:45.038Z,44.23
2017-09-28T14:41:12.626Z,41.47
2017-09-28T14:43:40.249Z,34.80
2017-09-28T14:46:07.827Z,35.90
2017-09-28T14:48:35.392Z,37.70
2017-09-28T14:51:03.013Z,46.70
2017-09-28T14:53:31.351Z,43.00
2017-09-28T14:55:58.927Z,33.47
2017-09-28T14:58:26.513Z,39.50
2017-09-28T15:00:54.105Z,32.77
2017-09-28T15:03:21.661Z,32.70
2017-09-28T15:05:50.020Z,37.77
2017-09-28T15:08:17.596Z,40.80
2017-09-28T15:10:45.979Z,35.40
2017-09-28T15:13:14.610Z,35.20
2017-09-28T15:15:42.219Z,33.77
2017-09-28T15:18:09.822Z,38.80
2017-09-28T15:20:37.403Z,40.97
2017-09-28T15:23:04.957Z,36.63
2017-09-28T15:25:32.551Z,38.10
2017-09-28T15:28:00.138Z,36.30
2017-09-28T15:30:27.735Z,30.87
2017-09-28T15:32:56.945Z,35.43
2017-09-28T15:35:24.568Z,36.37
2017-09-28T15:37:52.141Z,33.73
2017-09-28T15:40:20.525Z,45.40
2017-09-28T15:42:48.884Z,42.93
2017-09-28T15:45:16.462Z,36.53
2017-09-28T15:47:44.075Z,38.50
2017-09-28T15:50:11.636Z,38.67
2017-09-28T15:52:39.224Z,38.47
2017-09-28T15:55:06.848Z,34.77
2017-09-28T15:57:34.440Z,43.20
2017-09-28T16:00:02.003Z,38.40
2017-09-28T16:02:29.589Z,39.23
2017-09-28T16:04:57.185Z,40.00
2017-09-28T16:07:25.545Z,39.53
2017-09-28T16:09:53.136Z,33.37
2017-09-28T16:12:21.457Z,37.87
2017-09-28T16:14:49.032Z,42.20
2017-09-28T16:17:16.631Z,33.27
2017-09-28T16:19:44.228Z,39.80
2017-09-28T16:22:11.803Z,38.33
2017-09-28T16:24:39.421Z,39.33
2017-09-28T16:27:06.999Z,38.30
2017-09-28T16:29:35.350Z,37.57
2017-09-28T16:32:02.991Z,34.80
2017-09-28T16:34:30.698Z,36.07
2017-09-28T16:36:58.277Z,38.17
2017-09-28T16:39:25.879Z,40.07
2017-09-28T16:41:53.469Z,40.30
2017-09-28T16:44:21.073Z,38.57
2017-09-28T16:46:49.447Z,43.80
2017-09-28T16:49:17.037Z,35.70
2017-09-28T16:51:44.616Z,37.50
2017-09-28T16:54:12.201Z,42.33
2017-09-28T16:56:39.760Z,35.20
2017-09-28T16:59:07.335Z,38.00
2017-09-28T17:01:34.924Z,41.57
2017-09-28T17:04:02.511Z,39.33
2017-09-28T17:06:30.855Z,36.47
2017-09-28T17:08:58.464Z,33.13
2017-09-28T17:11:26.802Z,38.87
2017-09-28T17:13:54.398Z,42.37
2017-09-28T17:16:22.775Z,36.57
2017-09-28T17:18:51.127Z,35.37
2017-09-28T17:21:18.703Z,37.80
2017-09-28T17:23:46.318Z,39.67
2017-09-28T17:26:13.898Z,36.30
2017-09-28T17:28:41.471Z,34.03
2017-09-28T17:31:09.094Z,38.17
2017-09-28T17:33:37.455Z,30.90
2017-09-28T17:36:05.046Z,33.83
2017-09-28T17:38:32.656Z,32.33
2017-09-28T17:41:00.256Z,35.77
2017-09-28T17:43:27.871Z,36.90
2017-09-28T17:45:55.479Z,40.90
2017-09-28T17:48:23.041Z,37.87
2017-09-28T17:50:50.627Z,31.00
2017-09-28T17:53:18.998Z,35.50
2017-09-28T17:55:47.356Z,33.97
2017-09-28T17:58:16.443Z,37.40
2017-09-28T18:00:44.071Z,34.57
2017-09-28T18:03:11.638Z,41.97
2017-09-28T18:05:39.237Z,35.20
2017-09-28T18:08:06.846Z,37.73
2017-09-28T18:10:35.204Z,36.00
2017-09-28T18:13:03.598Z,42.50
2017-09-28T18:15:31.976Z,40.67
2017-09-28T18:17:59.608Z,34.80
2017-09-28T18:20:27.183Z,34.23
2017-09-28T18:22:55.031Z,39.60
2017-09-28T18:25:22.660Z,36.37
2017-09-28T18:27:50.269Z,38.47
2017-09-28T18:30:17.934Z,37.47
2017-09-28T18:32:45.515Z,40.90
2017-09-28T18:35:13.254Z,38.67
2017-09-28T18:37:40.911Z,41.27
2017-09-28T18:40:08.477Z,39.93
2017-09-28T18:42:36.254Z,37.20
2017-09-28T18:45:03.883Z,38.40
2017-09-28T18:47:32.255Z,38.13
2017-09-28T18:50:00.605Z,40.43
2017-09-28T18:52:28.206Z,43.03
2017-09-28T18:54:56.528Z,37.90
2017-09-28T18:57:24.116Z,37.00
2017-09-28T18:59:51.727Z,29.20
2017-09-28T19:02:20.142Z,31.93
2017-09-28T19:04:47.748Z,37.20
2017-09-28T19:07:15.320Z,43.60
2017-09-28T19:09:43.667Z,37.67
2017-09-28T19:12:11.293Z,35.63
2017-09-28T19:14:38.856Z,36.90
2017-09-28T19:17:06.646Z,33.37
2017-09-28T19:19:34.619Z,37.10
2017-09-28T19:22:02.285Z,28.33
2017-09-28T19:24:29.881Z,29.63
2017-09-28T19:26:57.437Z,27.30
2017-09-28T19:29:25.024Z,33.37
2017-09-28T19:31:53.404Z,31.90
2017-09-28T19:34:20.998Z,30.60
2017-09-28T19:36:48.577Z,35.13
2017-09-28T19:39:16.183Z,32.83
2017-09-28T19:41:43.755Z,35.70
2017-09-28T19:44:11.323Z,35.00
2017-09-28T19:46:38.919Z,29.90
2017-09-28T19:49:06.510Z,29.93
2017-09-28T19:51:34.191Z,31.13
2017-09-28T19:54:01.833Z,33.63
2017-09-28T19:56:29.431Z,32.23
2017-09-28T19:58:57.031Z,29.97
2017-09-28T20:01:25.421Z,33.60
2017-09-28T20:03:53.224Z,31.23
2017-09-28T20:06:20.803Z,33.90
2017-09-28T20:08:48.465Z,28.53
2017-09-28T20:11:16.074Z,33.90
2017-09-28T20:13:44.431Z,33.47
2017-09-28T20:16:12.170Z,30.57
2017-09-28T20:18:39.759Z,31.17
2017-09-28T20:21:07.336Z,26.80
2017-09-28T20:23:34.946Z,26.60
2017-09-28T20:26:02.516Z,31.13
2017-09-28T20:28:30.115Z,25.37
2017-09-28T20:30:57.692Z,26.50
2017-09-28T20:33:25.266Z,28.70
2017-09-28T20:35:52.876Z,31.33
2017-09-28T20:38:20.434Z,27.13
2017-09-28T20:40:48.125Z,32.73
2017-09-28T20:43:15.717Z,25.37
2017-09-28T20:45:43.300Z,25.70
2017-09-28T20:48:11.645Z,19.37
2017-09-28T20:50:39.274Z,20.20
2017-09-28T20:53:06.842Z,16.20
2017-09-28T20:55:34.450Z,22.57
2017-09-28T20:58:02.014Z,19.03
2017-09-28T21:00:29.611Z,18.63
2017-09-28T21:02:57.958Z,18.00
2017-09-28T21:05:25.517Z,25.07
2017-09-28T21:07:53.116Z,25.83
2017-09-28T21:10:21.456Z,22.10
2017-09-28T21:12:49.410Z,18.70
2017-09-28T21:15:17.011Z,21.37
2017-09-28T21:17:44.573Z,21.17
2017-09-28T21:20:12.944Z,20.00
2017-09-28T21:22:40.570Z,19.87
2017-09-28T21:25:08.148Z,22.73
2017-09-28T21:27:35.916Z,19.20
2017-09-28T21:30:03.520Z,18.83
2017-09-28T21:32:31.117Z,16.07
2017-09-28T21:34:58.714Z,20.37
2017-09-28T21:37:26.325Z,19.27
2017-09-28T21:39:53.888Z,18.73
2017-09-28T21:42:21.477Z,24.37
2017-09-28T21:44:49.073Z,20.53
2017-09-28T21:47:16.661Z,17.90
2017-09-28T21:49:44.236Z,29.33
2017-09-28T21:52:13.352Z,20.27
2017-09-28T21:54:41.702Z,19.97
2017-09-28T21:57:09.321Z,18.97
2017-09-28T21:59:36.913Z,19.30
2017-09-28T22:02:04.491Z,20.60
2017-09-28T22:04:32.057Z,19.93
2017-09-28T22:06:59.661Z,23.37
2017-09-28T22:09:28.086Z,21.80
2017-09-28T22:11:55.685Z,20.77
2017-09-28T22:14:23.301Z,16.57
2017-09-28T22:16:50.873Z,20.43
2017-09-28T22:19:19.375Z,18.43
2017-09-28T22:21:46.952Z,27.03
2017-09-28T22:24:15.357Z,21.03
2017-09-28T22:26:42.945Z,17.10
2017-09-28T22:29:11.288Z,17.53
2017-09-28T22:31:38.863Z,21.37
2017-09-28T22:34:06.471Z,23.03
2017-09-28T22:36:34.048Z,21.27
2017-09-28T22:39:01.623Z,18.50
2017-09-28T22:41:29.235Z,20.87
2017-09-28T22:43:57.579Z,23.83
2017-09-28T22:46:25.155Z,20.63
2017-09-28T22:48:52.764Z,16.10
2017-09-28T22:51:20.343Z,22.90
2017-09-28T22:53:47.918Z,19.13
2017-09-28T22:56:15.658Z,19.60
2017-09-28T22:58:43.257Z,16.90
2017-09-28T23:01:10.867Z,23.20
2017-09-28T23:03:38.455Z,21.43
2017-09-28T23:06:06.013Z,22.30
2017-09-28T23:08:33.597Z,19.23
2017-09-28T23:11:01.172Z,18.60
2017-09-28T23:13:28.783Z,20.50
2017-09-28T23:15:57.134Z,25.07
2017-09-28T23:18:24.693Z,20.50
2017-09-28T23:20:52.317Z,25.43
2017-09-28T23:23:19.913Z,20.40
2017-09-28T23:25:47.492Z,24.63
2017-09-28T23:28:15.104Z,20.17
2017-09-28T23:30:43.451Z,24.50
2017-09-28T23:33:11.009Z,19.13
2017-09-28T23:35:38.663Z,18.80
2017-09-28T23:38:06.252Z,16.07
2017-09-28T23:40:33.831Z,20.83
2017-09-28T23:43:02.380Z,23.07
2017-09-28T23:45:30.758Z,21.87
2017-09-28T23:47:58.344Z,21.90
2017-09-28T23:50:25.951Z,15.93
2017-09-28T23:52:53.535Z,19.73
2017-09-28T23:55:21.136Z,29.20
2017-09-28T23:57:48.701Z,18.43
